Time;durP1;ratioP1;P1;durP2;ratioP2;P2;SDS_P1;SDS_P2;PMS_P1;PMS_P2;Temp;Humidity;BMP_temperature;BMP_pressure;BME280_temperature;BME280_humidity;BME280_pressure;Samples;Min_cycle;Max_cycle;Signal;HPM_P1;HPM_P2
2021/12/11 00:02:15;;;;;;;18.57;14.50;;;5.70;99.90;;;;;;5019859;28;20215;-23
2021/12/11 00:04:45;;;;;;;15.73;14.00;;;5.70;99.90;;;;;;5013306;28;20318;-23
2021/12/11 00:07:15;;;;;;;18.33;13.63;;;5.70;99.90;;;;;;5006013;28;20626;-23
2021/12/11 00:09:49;;;;;;;17.17;13.97;;;5.70;99.90;;;;;;5006617;28;20216;-23
2021/12/11 00:12:19;;;;;;;15.73;13.80;;;5.80;99.90;;;;;;5012902;28;20204;-23
2021/12/11 00:14:54;;;;;;;15.60;13.13;;;5.80;99.90;;;;;;5011312;28;20683;-23
2021/12/11 00:17:29;;;;;;;14.97;12.70;;;5.80;99.90;;;;;;5011773;28;20208;-23
2021/12/11 00:20:07;;;;;;;15.90;13.00;;;5.80;99.90;;;;;;5013843;28;20233;-23
2021/12/11 00:22:35;;;;;;;17.47;13.23;;;5.80;99.90;;;;;;5005709;28;20616;-23
2021/12/11 00:25:06;;;;;;;15.10;12.57;;;5.80;99.90;;;;;;5006477;28;20211;-23
2021/12/11 00:27:35;;;;;;;15.67;13.17;;;5.80;99.90;;;;;;5018246;28;20599;-23
2021/12/11 00:30:10;;;;;;;15.43;12.73;;;5.80;99.90;;;;;;5007163;28;20216;-23
2021/12/11 00:32:38;;;;;;;14.83;12.67;;;5.80;99.90;;;;;;5017649;28;20224;-23
2021/12/11 00:35:20;;;;;;;14.17;11.80;;;5.90;99.90;;;;;;5016247;28;20197;-23
2021/12/11 00:38:15;;;;;;;16.53;13.37;;;5.90;99.90;;;;;;5018402;28;20339;-23
2021/12/11 00:41:07;;;;;;;15.37;12.53;;;5.90;99.90;;;;;;5010851;28;20217;-24
2021/12/11 00:43:40;;;;;;;15.67;12.80;;;5.90;99.90;;;;;;5010685;28;20809;-23
2021/12/11 00:46:26;;;;;;;17.67;13.30;;;5.90;99.90;;;;;;5019014;28;20209;-23
2021/12/11 00:49:05;;;;;;;14.83;12.27;;;6.00;99.90;;;;;;5022685;28;20676;-23
2021/12/11 00:51:32;;;;;;;16.00;12.97;;;6.00;99.90;;;;;;5009596;28;20252;-23
2021/12/11 00:54:03;;;;;;;16.37;13.53;;;6.00;99.90;;;;;;5011058;28;20300;-23
2021/12/11 00:56:36;;;;;;;16.90;13.27;;;6.00;99.90;;;;;;5014155;28;20226;-23
2021/12/11 00:59:10;;;;;;;15.57;13.20;;;6.00;99.90;;;;;;5011574;28;20225;-23
2021/12/11 01:01:58;;;;;;;16.67;12.83;;;6.00;99.90;;;;;;5019714;28;20733;-23
2021/12/11 01:04:41;;;;;;;14.63;13.13;;;6.00;99.90;;;;;;5015635;28;20629;-23
2021/12/11 01:07:19;;;;;;;15.63;12.43;;;6.00;99.90;;;;;;5012317;28;20222;-23
2021/12/11 01:09:53;;;;;;;15.73;13.43;;;6.00;99.90;;;;;;5010809;28;20213;-23
2021/12/11 01:12:42;;;;;;;15.10;12.23;;;6.00;99.90;;;;;;5009392;28;20208;-23
2021/12/11 01:15:31;;;;;;;15.07;13.07;;;6.00;99.90;;;;;;5017108;28;20620;-23
2021/12/11 01:18:13;;;;;;;15.03;12.63;;;6.10;99.90;;;;;;5013433;28;20197;-24
2021/12/11 01:21:02;;;;;;;13.93;11.50;;;6.10;99.90;;;;;;5011385;28;20591;-23
2021/12/11 01:26:14;;;;;;;14.37;12.10;;;6.10;99.90;;;;;;5017483;28;20222;-24
2021/12/11 01:28:43;;;;;;;14.40;12.37;;;6.10;99.90;;;;;;5011089;28;20660;-23
2021/12/11 01:31:14;;;;;;;15.57;13.10;;;6.10;99.90;;;;;;5010406;28;20213;-23
2021/12/11 01:33:42;;;;;;;15.33;12.67;;;6.10;99.90;;;;;;5008178;28;20217;-24
2021/12/11 01:36:11;;;;;;;13.53;11.93;;;6.10;99.90;;;;;;5020767;28;20232;-23
2021/12/11 01:38:39;;;;;;;15.20;12.70;;;6.10;99.90;;;;;;5011326;28;20197;-23
2021/12/11 01:41:12;;;;;;;14.60;12.47;;;6.10;99.90;;;;;;5011961;28;20259;-23
2021/12/11 01:43:41;;;;;;;14.97;12.73;;;6.10;99.90;;;;;;5024995;28;20205;-23
2021/12/11 01:46:11;;;;;;;15.70;13.07;;;6.10;99.90;;;;;;5016719;28;20212;-23
2021/12/11 01:48:45;;;;;;;18.00;14.10;;;6.10;99.90;;;;;;5009359;28;20237;-23
2021/12/11 01:51:38;;;;;;;16.00;12.80;;;6.10;99.90;;;;;;5008987;28;20237;-23
2021/12/11 01:54:16;;;;;;;16.13;13.23;;;6.20;99.90;;;;;;5007996;28;20928;-23
2021/12/11 01:56:50;;;;;;;16.53;13.67;;;6.20;99.90;;;;;;5020094;28;20725;-23
2021/12/11 01:59:25;;;;;;;15.20;12.67;;;6.20;99.90;;;;;;5015275;28;20255;-23
2021/12/11 02:02:03;;;;;;;15.77;12.87;;;6.20;99.90;;;;;;5023502;28;20247;-23
2021/12/11 02:04:37;;;;;;;16.70;13.53;;;6.20;99.90;;;;;;5015837;28;20213;-23
2021/12/11 02:07:15;;;;;;;15.70;13.10;;;6.20;99.90;;;;;;5013385;28;20214;-23
2021/12/11 02:09:50;;;;;;;16.43;13.73;;;6.20;99.90;;;;;;5017666;28;20213;-23
2021/12/11 02:12:21;;;;;;;15.27;13.23;;;6.20;99.90;;;;;;5024846;28;20310;-23
2021/12/11 02:14:58;;;;;;;17.07;14.07;;;6.20;99.90;;;;;;5012912;28;20209;-23
2021/12/11 02:17:46;;;;;;;16.73;13.40;;;6.20;99.90;;;;;;5020793;28;20248;-23
2021/12/11 02:20:27;;;;;;;16.70;12.97;;;6.20;99.90;;;;;;5016281;28;20223;-23
2021/12/11 02:22:57;;;;;;;15.80;13.50;;;6.20;99.90;;;;;;5025850;28;20220;-23
2021/12/11 02:25:32;;;;;;;17.67;14.43;;;6.20;99.90;;;;;;5021223;28;20286;-23
2021/12/11 02:28:13;;;;;;;16.70;14.03;;;6.20;99.90;;;;;;5010338;28;20209;-23
2021/12/11 02:31:26;;;;;;;18.90;15.03;;;6.20;99.90;;;;;;5013536;28;20201;-23
2021/12/11 02:34:09;;;;;;;17.70;14.63;;;6.20;99.90;;;;;;5025776;28;20758;-23
2021/12/11 02:36:53;;;;;;;18.53;14.60;;;6.20;99.90;;;;;;4998879;28;20225;-23
2021/12/11 02:39:39;;;;;;;17.23;14.23;;;6.20;99.90;;;;;;5013858;28;20229;-23
2021/12/11 02:42:21;;;;;;;17.97;14.27;;;6.20;99.90;;;;;;5009667;28;20216;-23
2021/12/11 02:45:02;;;;;;;16.93;13.93;;;6.20;99.90;;;;;;5011416;28;20217;-23
2021/12/11 02:47:34;;;;;;;16.10;13.30;;;6.20;99.90;;;;;;5025080;28;20200;-23
2021/12/11 02:50:07;;;;;;;16.00;13.47;;;6.20;99.90;;;;;;5013621;28;20221;-23
2021/12/11 02:52:44;;;;;;;17.77;14.23;;;6.20;99.90;;;;;;5007330;28;20473;-23
2021/12/11 02:55:14;;;;;;;17.70;14.00;;;6.20;99.90;;;;;;5012920;28;20213;-23
2021/12/11 02:57:52;;;;;;;16.90;13.87;;;6.20;99.90;;;;;;5019042;28;20239;-23
2021/12/11 03:00:22;;;;;;;17.03;13.80;;;6.20;99.90;;;;;;5010822;28;20213;-23
2021/12/11 03:03:02;;;;;;;17.00;13.93;;;6.20;99.90;;;;;;5019562;28;20223;-23
2021/12/11 03:05:41;;;;;;;16.97;14.00;;;6.20;99.90;;;;;;5010199;28;20903;-23
2021/12/11 03:08:13;;;;;;;15.70;13.13;;;6.20;99.90;;;;;;5018218;28;20737;-23
2021/12/11 03:10:43;;;;;;;13.23;10.97;;;6.30;99.90;;;;;;5008425;28;20206;-23
2021/12/11 03:13:12;;;;;;;11.63;8.87;;;6.30;99.90;;;;;;5011306;28;20884;-23
2021/12/11 03:15:40;;;;;;;7.57;6.10;;;6.30;99.90;;;;;;5016540;28;20213;-23
2021/12/11 03:18:07;;;;;;;6.40;5.00;;;6.40;99.90;;;;;;5018556;28;20205;-25
2021/12/11 03:20:40;;;;;;;7.37;4.27;;;6.50;99.90;;;;;;5016336;28;20660;-25
2021/12/11 03:23:08;;;;;;;8.70;3.87;;;6.50;99.90;;;;;;5020893;28;20197;-25
2021/12/11 03:25:39;;;;;;;11.07;4.43;;;6.60;99.90;;;;;;5008441;28;20292;-25
2021/12/11 03:28:09;;;;;;;8.43;3.67;;;6.70;99.90;;;;;;5009499;28;20260;-25
2021/12/11 03:30:44;;;;;;;6.40;3.47;;;6.70;99.90;;;;;;5015849;28;20206;-25
2021/12/11 03:33:15;;;;;;;8.43;3.30;;;6.80;99.90;;;;;;5008150;28;20735;-25
2021/12/11 03:35:43;;;;;;;8.00;3.50;;;6.80;99.90;;;;;;5013091;28;20208;-26
2021/12/11 03:38:12;;;;;;;6.87;2.97;;;6.90;99.90;;;;;;5024668;28;20200;-25
2021/12/11 03:40:41;;;;;;;8.77;3.13;;;7.00;99.90;;;;;;5005388;28;20211;-25
2021/12/11 03:43:12;;;;;;;7.03;3.30;;;7.00;99.90;;;;;;5020412;28;20201;-25
2021/12/11 03:45:42;;;;;;;9.63;3.13;;;7.10;99.90;;;;;;5008196;28;20198;-25
2021/12/11 03:48:26;;;;;;;9.30;3.23;;;7.10;99.90;;;;;;5007403;28;20205;-26
2021/12/11 03:50:56;;;;;;;8.73;2.80;;;7.20;99.90;;;;;;5015235;28;20273;-25
2021/12/11 03:53:24;;;;;;;6.97;2.33;;;7.20;99.90;;;;;;5010079;28;20245;-25
2021/12/11 03:56:00;;;;;;;7.43;2.70;;;7.30;99.90;;;;;;5008851;28;20209;-25
2021/12/11 03:58:28;;;;;;;8.77;2.87;;;7.30;99.90;;;;;;5014210;28;20209;-25
2021/12/11 04:01:09;;;;;;;6.33;2.70;;;7.30;99.90;;;;;;5021670;28;20216;-25
2021/12/11 04:03:46;;;;;;;6.73;2.50;;;7.40;99.90;;;;;;5007763;28;20235;-25
2021/12/11 04:06:17;;;;;;;10.13;2.90;;;7.40;99.90;;;;;;5021021;28;20214;-25
2021/12/11 04:08:45;;;;;;;5.53;2.50;;;7.40;99.90;;;;;;5008867;28;20257;-25
2021/12/11 04:11:22;;;;;;;6.20;2.30;;;7.50;99.90;;;;;;5017140;28;20201;-25
2021/12/11 04:13:57;;;;;;;6.50;2.53;;;7.50;99.90;;;;;;5022299;28;20208;-25
2021/12/11 04:16:26;;;;;;;6.60;2.20;;;7.50;99.90;;;;;;5008141;28;20229;-25
2021/12/11 04:18:53;;;;;;;7.50;2.00;;;7.50;99.90;;;;;;5007566;28;20205;-25
2021/12/11 04:21:21;;;;;;;5.37;1.70;;;7.60;99.90;;;;;;5014565;28;20291;-25
2021/12/11 04:23:49;;;;;;;7.30;1.60;;;7.60;99.90;;;;;;5018621;28;20200;-25
2021/12/11 04:26:16;;;;;;;6.30;1.90;;;7.60;99.90;;;;;;5011294;28;20210;-25
2021/12/11 04:28:46;;;;;;;9.07;1.90;;;7.60;99.90;;;;;;5019449;28;20204;-25
2021/12/11 04:31:22;;;;;;;9.53;2.23;;;7.60;99.90;;;;;;5006370;28;20205;-25
2021/12/11 04:33:53;;;;;;;6.90;1.90;;;7.70;99.90;;;;;;5013810;28;20198;-25
2021/12/11 04:36:28;;;;;;;5.80;1.50;;;7.70;99.90;;;;;;5020719;28;20339;-25
2021/12/11 04:38:59;;;;;;;7.30;1.50;;;7.70;99.90;;;;;;5010582;28;20213;-25
2021/12/11 04:41:38;;;;;;;6.17;1.47;;;7.70;99.90;;;;;;5008642;28;20206;-25
2021/12/11 04:44:11;;;;;;;8.70;1.77;;;7.70;99.90;;;;;;5005864;28;20227;-25
2021/12/11 04:46:38;;;;;;;10.27;1.77;;;7.80;99.90;;;;;;5002937;28;20330;-25
2021/12/11 04:49:16;;;;;;;7.57;1.93;;;7.80;99.90;;;;;;5007710;28;20676;-25
2021/12/11 04:51:55;;;;;;;8.20;1.50;;;7.80;99.90;;;;;;5005786;28;20332;-25
2021/12/11 05:02:31;;;;;;;7.07;1.77;;;7.80;99.90;;;;;;5013930;28;20221;-25
2021/12/11 05:07:58;;;;;;;11.07;2.33;;;7.80;99.90;;;;;;5013926;28;20220;-25
2021/12/11 05:11:09;;;;;;;8.37;1.70;;;7.80;99.90;;;;;;5006476;28;20783;-25
2021/12/11 05:13:27;;;;;;;5.90;1.83;;;7.90;99.90;;;;;;5006267;28;20222;-25
2021/12/11 05:15:59;;;;;;;7.10;2.47;;;7.80;99.90;;;;;;5014457;28;20211;-25
2021/12/11 05:18:29;;;;;;;8.20;2.30;;;7.80;99.90;;;;;;5006878;28;20238;-25
2021/12/11 05:21:04;;;;;;;9.63;3.07;;;7.90;99.90;;;;;;5006299;28;20202;-25
2021/12/11 05:23:31;;;;;;;8.80;2.50;;;7.90;99.90;;;;;;5014054;28;20308;-25
2021/12/11 05:25:59;;;;;;;7.97;2.53;;;7.90;99.90;;;;;;5012552;28;20325;-25
2021/12/11 05:28:26;;;;;;;7.53;2.37;;;7.90;99.90;;;;;;5013878;28;20339;-25
2021/12/11 05:30:58;;;;;;;7.23;1.70;;;7.90;99.90;;;;;;5020939;28;20300;-25
2021/12/11 05:33:26;;;;;;;7.70;2.10;;;7.90;99.90;;;;;;5015526;28;20213;-25
2021/12/11 05:35:53;;;;;;;7.17;1.90;;;7.90;99.90;;;;;;5013410;28;20206;-25
2021/12/11 05:38:24;;;;;;;11.83;2.70;;;7.90;99.90;;;;;;5008502;28;20233;-25
2021/12/11 05:40:57;;;;;;;9.83;1.93;;;7.90;99.90;;;;;;5016485;28;20204;-25
2021/12/11 05:43:25;;;;;;;8.40;1.93;;;7.90;99.90;;;;;;5020819;28;20210;-25
2021/12/11 05:45:55;;;;;;;7.57;2.03;;;7.90;99.90;;;;;;5008173;28;20213;-25
2021/12/11 05:48:24;;;;;;;6.23;1.87;;;7.90;99.90;;;;;;5011250;28;20565;-25
2021/12/11 05:50:57;;;;;;;10.40;2.10;;;7.90;99.90;;;;;;5012925;28;20609;-25
2021/12/11 05:53:28;;;;;;;10.93;2.67;;;7.90;99.90;;;;;;5010757;28;20210;-25
2021/12/11 05:56:00;;;;;;;8.63;2.23;;;7.90;99.90;;;;;;5020171;28;20223;-26
2021/12/11 06:01:32;;;;;;;10.00;2.07;;;7.90;99.90;;;;;;5007869;28;20309;-25
2021/12/11 06:04:06;;;;;;;11.63;2.97;;;7.90;99.90;;;;;;5007936;28;20283;-26
2021/12/11 06:06:39;;;;;;;11.47;2.47;;;7.90;99.90;;;;;;5011857;28;20206;-25
2021/12/11 06:09:15;;;;;;;7.67;2.70;;;7.90;99.90;;;;;;5011491;28;20271;-25
2021/12/11 06:11:47;;;;;;;11.73;3.43;;;7.90;99.90;;;;;;5013848;28;20210;-25
2021/12/11 06:14:17;;;;;;;11.27;2.53;;;7.90;99.90;;;;;;5006517;28;20221;-25
2021/12/11 06:16:50;;;;;;;11.90;3.03;;;7.90;99.90;;;;;;5015324;28;20561;-25
2021/12/11 06:19:21;;;;;;;9.17;2.93;;;7.90;99.90;;;;;;5014671;28;20580;-25
2021/12/11 06:21:52;;;;;;;12.50;3.57;;;7.90;99.90;;;;;;5017641;28;20680;-25
2021/12/11 06:24:20;;;;;;;12.23;3.67;;;7.90;99.90;;;;;;5007963;28;20205;-25
2021/12/11 06:26:49;;;;;;;10.67;3.50;;;7.90;99.90;;;;;;5020474;28;20213;-25
2021/12/11 06:29:17;;;;;;;19.80;4.37;;;8.00;99.90;;;;;;5020261;28;20299;-25
2021/12/11 06:31:44;;;;;;;17.70;3.73;;;8.00;99.90;;;;;;5009440;28;20213;-25
2021/12/11 06:34:12;;;;;;;14.07;3.60;;;8.00;99.90;;;;;;5012144;28;20210;-25
2021/12/11 06:36:42;;;;;;;16.03;3.33;;;8.00;99.90;;;;;;5007710;28;20210;-25
2021/12/11 06:39:14;;;;;;;13.17;3.63;;;8.00;99.90;;;;;;5013665;28;20200;-25
2021/12/11 06:41:44;;;;;;;13.13;3.67;;;7.90;99.90;;;;;;5021842;28;20224;-25
2021/12/11 06:44:11;;;;;;;15.63;3.80;;;7.90;99.90;;;;;;5013568;28;20647;-25
2021/12/11 06:46:41;;;;;;;14.57;4.20;;;7.90;99.90;;;;;;5014510;28;20235;-24
2021/12/11 06:49:11;;;;;;;11.20;3.57;;;7.90;99.90;;;;;;5023369;28;20221;-24
2021/12/11 06:51:39;;;;;;;12.37;3.80;;;7.80;99.90;;;;;;5005624;28;20633;-28
2021/12/11 06:54:10;;;;;;;11.20;3.53;;;7.80;99.90;;;;;;5007053;28;20209;-24
2021/12/11 06:56:39;;;;;;;21.03;5.00;;;7.80;99.90;;;;;;5008028;28;20579;-24
2021/12/11 06:59:08;;;;;;;14.50;3.90;;;7.80;99.90;;;;;;5008390;28;20710;-24
2021/12/11 07:01:37;;;;;;;8.40;3.23;;;7.80;99.90;;;;;;5009748;28;20289;-24
2021/12/11 07:04:07;;;;;;;14.53;3.50;;;7.80;99.90;;;;;;5017529;28;20631;-24
2021/12/11 07:06:39;;;;;;;12.57;3.80;;;7.80;99.90;;;;;;5015515;28;20595;-24
2021/12/11 07:09:11;;;;;;;14.20;3.67;;;7.80;99.90;;;;;;5011582;28;20284;-24
2021/12/11 07:11:42;;;;;;;7.97;3.07;;;7.70;99.90;;;;;;5021241;28;20308;-24
2021/12/11 07:14:13;;;;;;;12.33;3.30;;;7.70;99.90;;;;;;5027091;28;20237;-25
2021/12/11 07:16:46;;;;;;;11.50;3.00;;;7.70;99.90;;;;;;5019662;28;20410;-24
2021/12/11 07:19:14;;;;;;;14.43;3.43;;;7.70;99.90;;;;;;5008662;28;20197;-25
2021/12/11 07:21:50;;;;;;;13.67;3.33;;;7.60;99.90;;;;;;5008354;28;20216;-24
2021/12/11 07:24:24;;;;;;;15.83;3.47;;;7.60;99.90;;;;;;5008941;28;20205;-25
2021/12/11 07:26:51;;;;;;;8.67;3.30;;;7.60;99.90;;;;;;5018293;28;20627;-24
2021/12/11 07:29:20;;;;;;;12.87;3.40;;;7.60;99.90;;;;;;5015910;28;20209;-25
2021/12/11 07:31:50;;;;;;;14.47;3.77;;;7.60;99.90;;;;;;5016789;28;20296;-24
2021/12/11 07:34:20;;;;;;;11.53;3.13;;;7.60;99.90;;;;;;5017503;28;20209;-25
2021/12/11 07:36:50;;;;;;;11.47;3.00;;;7.50;99.90;;;;;;5010256;28;20583;-24
2021/12/11 07:39:20;;;;;;;12.50;3.60;;;7.50;99.90;;;;;;5020378;28;20421;-24
2021/12/11 07:41:49;;;;;;;14.23;3.10;;;7.50;99.90;;;;;;5043779;28;20205;-24
2021/12/11 07:44:17;;;;;;;14.17;3.67;;;7.40;99.90;;;;;;5007626;28;20598;-24
2021/12/11 07:46:45;;;;;;;14.37;3.80;;;7.40;99.90;;;;;;5008811;28;20738;-24
2021/12/11 07:49:15;;;;;;;9.70;3.20;;;7.40;99.90;;;;;;5022341;28;20212;-24
2021/12/11 07:51:42;;;;;;;11.70;3.27;;;7.40;99.90;;;;;;5016669;28;20295;-24
2021/12/11 07:54:10;;;;;;;9.47;3.43;;;7.30;99.90;;;;;;5008187;28;20201;-24
2021/12/11 07:56:38;;;;;;;13.33;3.03;;;7.30;99.90;;;;;;5011797;28;20208;-24
2021/12/11 07:59:09;;;;;;;12.27;3.27;;;7.30;99.90;;;;;;5008941;28;20232;-24
2021/12/11 08:01:41;;;;;;;19.00;3.30;;;7.30;99.90;;;;;;5026572;28;20212;-26
2021/12/11 08:04:09;;;;;;;12.10;3.20;;;7.30;99.90;;;;;;5014148;28;20345;-26
2021/12/11 08:06:38;;;;;;;13.23;3.77;;;7.20;99.90;;;;;;5016125;28;20232;-26
2021/12/11 08:09:10;;;;;;;12.80;3.40;;;7.20;99.90;;;;;;5017087;28;20223;-26
2021/12/11 08:11:39;;;;;;;10.90;3.03;;;7.20;99.90;;;;;;5005850;28;20205;-26
2021/12/11 08:14:09;;;;;;;13.90;3.60;;;7.20;99.90;;;;;;5016613;28;20205;-26
2021/12/11 08:16:49;;;;;;;10.33;2.90;;;7.20;99.90;;;;;;5008092;28;20307;-26
2021/12/11 08:19:24;;;;;;;10.73;3.27;;;7.20;99.90;;;;;;5011300;28;20192;-26
2021/12/11 08:21:57;;;;;;;15.63;3.60;;;7.10;99.90;;;;;;5022201;28;20207;-26
2021/12/11 08:24:27;;;;;;;12.50;3.03;;;7.10;99.90;;;;;;5009446;28;20292;-26
2021/12/11 08:26:59;;;;;;;9.67;3.03;;;7.10;99.90;;;;;;5006123;28;20221;-26
2021/12/11 08:29:27;;;;;;;10.67;3.10;;;7.10;99.90;;;;;;5012928;28;20200;-26
2021/12/11 08:31:58;;;;;;;12.97;3.17;;;7.10;99.90;;;;;;5027235;28;20236;-26
2021/12/11 08:34:25;;;;;;;12.30;3.10;;;7.10;99.90;;;;;;5009182;28;20664;-26
2021/12/11 08:36:53;;;;;;;12.30;3.43;;;7.10;99.90;;;;;;5008568;28;20201;-26
2021/12/11 08:39:21;;;;;;;12.07;3.20;;;7.10;99.90;;;;;;5009668;28;20233;-26
2021/12/11 08:41:51;;;;;;;11.47;3.10;;;7.10;99.90;;;;;;5012392;28;20213;-26
2021/12/11 08:44:23;;;;;;;12.83;3.93;;;7.10;99.90;;;;;;5007406;28;20695;-26
2021/12/11 08:46:58;;;;;;;10.20;3.20;;;7.10;99.90;;;;;;5017116;28;20584;-26
2021/12/11 08:49:29;;;;;;;13.50;3.50;;;7.10;99.90;;;;;;5021581;28;20698;-26
2021/12/11 08:52:06;;;;;;;10.57;3.10;;;7.10;99.90;;;;;;5006081;28;20727;-26
2021/12/11 08:54:35;;;;;;;10.60;3.27;;;7.10;99.90;;;;;;5008109;28;20206;-26
2021/12/11 08:57:09;;;;;;;15.27;3.80;;;7.10;99.90;;;;;;5009451;28;20628;-26
2021/12/11 08:59:40;;;;;;;12.20;3.20;;;7.10;99.90;;;;;;5010240;28;20320;-26
2021/12/11 09:02:16;;;;;;;8.23;3.00;;;7.10;99.90;;;;;;5010804;28;20575;-26
2021/12/11 09:05:06;;;;;;;11.23;3.50;;;7.20;99.90;;;;;;5012642;28;20206;-26
2021/12/11 09:07:47;;;;;;;10.47;3.80;;;7.10;99.90;;;;;;5009292;28;20387;-26
2021/12/11 09:10:23;;;;;;;13.63;3.80;;;7.10;99.90;;;;;;5016938;28;20217;-26
2021/12/11 09:13:02;;;;;;;10.07;3.27;;;7.10;99.90;;;;;;5029948;28;20293;-26
2021/12/11 09:15:41;;;;;;;12.03;4.17;;;7.20;99.90;;;;;;5011003;28;20686;-26
2021/12/11 09:18:15;;;;;;;13.57;4.33;;;7.20;99.90;;;;;;5023285;28;20270;-26
2021/12/11 09:20:48;;;;;;;12.90;3.40;;;7.20;99.90;;;;;;5015029;28;20232;-27
2021/12/11 09:23:24;;;;;;;13.40;4.20;;;7.20;99.90;;;;;;5024670;28;20197;-26
2021/12/11 09:25:58;;;;;;;12.50;3.57;;;7.20;99.90;;;;;;5030523;28;20203;-26
2021/12/11 09:28:28;;;;;;;13.83;3.73;;;7.30;99.90;;;;;;5015951;28;20226;-26
2021/12/11 09:31:02;;;;;;;12.60;3.83;;;7.30;99.90;;;;;;5011975;28;20235;-26
2021/12/11 09:33:37;;;;;;;13.13;4.07;;;7.30;99.90;;;;;;5010345;28;20251;-26
2021/12/11 09:36:10;;;;;;;10.60;3.83;;;7.30;99.90;;;;;;5008667;28;20462;-26
2021/12/11 09:38:44;;;;;;;13.43;3.70;;;7.30;99.90;;;;;;5014127;28;20305;-26
2021/12/11 09:44:04;;;;;;;16.57;4.50;;;7.40;99.90;;;;;;5010707;28;20578;-26
2021/12/11 09:46:39;;;;;;;11.67;3.70;;;7.40;99.90;;;;;;5013876;28;20275;-26
2021/12/11 09:49:10;;;;;;;16.37;4.33;;;7.40;99.90;;;;;;5010073;28;20216;-26
2021/12/11 09:51:42;;;;;;;13.03;4.17;;;7.40;99.90;;;;;;5008968;28;20257;-26
2021/12/11 09:54:20;;;;;;;15.37;4.37;;;7.50;99.90;;;;;;5018657;28;20643;-26
2021/12/11 09:56:58;;;;;;;12.47;4.57;;;7.50;99.90;;;;;;5012477;28;20254;-26
2021/12/11 09:59:29;;;;;;;11.70;4.07;;;7.60;99.90;;;;;;5009949;28;20217;-26
2021/12/11 10:02:04;;;;;;;18.27;4.57;;;7.60;99.90;;;;;;5008712;28;20194;-26
2021/12/11 10:04:40;;;;;;;15.67;4.63;;;7.60;99.90;;;;;;5022801;28;20204;-26
2021/12/11 10:07:26;;;;;;;11.40;4.10;;;7.70;99.90;;;;;;5014044;28;20252;-26
2021/12/11 10:10:00;;;;;;;11.70;4.50;;;7.70;99.90;;;;;;5017061;28;20193;-26
2021/12/11 10:12:32;;;;;;;13.03;3.93;;;7.80;99.90;;;;;;5014468;28;20304;-26
2021/12/11 10:15:20;;;;;;;15.53;4.50;;;7.80;99.90;;;;;;5010597;28;20213;-26
2021/12/11 10:18:10;;;;;;;10.47;3.93;;;7.80;99.90;;;;;;5009729;28;20221;-26
2021/12/11 10:20:42;;;;;;;15.20;4.67;;;7.90;99.90;;;;;;5020861;28;20363;-26
2021/12/11 10:23:15;;;;;;;11.80;4.40;;;7.90;99.90;;;;;;5042604;28;20204;-24
2021/12/11 10:25:43;;;;;;;10.97;4.43;;;7.90;99.90;;;;;;5031627;28;20246;-24
2021/12/11 10:28:13;;;;;;;11.87;4.40;;;7.90;99.90;;;;;;5021489;28;20213;-24
2021/12/11 10:30:47;;;;;;;11.30;4.27;;;7.90;99.90;;;;;;5021690;28;20437;-24
2021/12/11 10:33:17;;;;;;;10.10;4.40;;;8.00;99.90;;;;;;5027341;28;20208;-24
2021/12/11 10:35:50;;;;;;;13.23;4.53;;;8.00;99.90;;;;;;5019019;28;20202;-24
2021/12/11 10:38:20;;;;;;;15.67;4.43;;;8.00;99.90;;;;;;5019287;28;20229;-24
2021/12/11 10:40:54;;;;;;;15.37;4.27;;;8.00;99.90;;;;;;5028046;28;20205;-24
2021/12/11 10:43:31;;;;;;;16.60;4.67;;;8.00;99.90;;;;;;5015890;28;20280;-25
2021/12/11 10:46:02;;;;;;;13.03;4.00;;;8.10;99.90;;;;;;5016529;28;20212;-24
2021/12/11 10:48:32;;;;;;;15.83;5.00;;;8.10;99.90;;;;;;5013241;28;20208;-24
2021/12/11 10:51:08;;;;;;;9.93;3.97;;;8.10;99.90;;;;;;5024799;28;20789;-24
2021/12/11 10:53:42;;;;;;;9.83;4.27;;;8.10;99.90;;;;;;5012352;28;20209;-24
2021/12/11 10:56:10;;;;;;;16.00;5.43;;;8.20;99.90;;;;;;5001151;28;20228;-24
2021/12/11 10:58:41;;;;;;;12.87;4.70;;;8.20;99.90;;;;;;5014059;28;20256;-24
2021/12/11 11:01:20;;;;;;;9.47;4.23;;;8.20;99.90;;;;;;5021260;28;20209;-24
2021/12/11 11:03:55;;;;;;;14.40;4.90;;;8.20;99.90;;;;;;5008640;28;20235;-24
2021/12/11 11:06:23;;;;;;;9.40;4.40;;;8.20;99.90;;;;;;5020101;28;20602;-24
2021/12/11 11:08:51;;;;;;;21.50;5.47;;;8.20;99.90;;;;;;5010049;28;20218;-25
2021/12/11 11:11:21;;;;;;;13.20;5.13;;;8.20;99.90;;;;;;5007954;28;20205;-24
2021/12/11 11:13:49;;;;;;;12.83;4.60;;;8.20;99.90;;;;;;5022378;28;20267;-24
2021/12/11 11:16:19;;;;;;;12.77;4.57;;;8.30;99.90;;;;;;5010143;28;20209;-25
2021/12/11 11:18:47;;;;;;;11.60;4.70;;;8.30;99.90;;;;;;5016139;28;20641;-24
2021/12/11 11:21:22;;;;;;;13.87;4.53;;;8.30;99.90;;;;;;5040361;28;20208;-24
2021/12/11 11:23:49;;;;;;;11.93;4.87;;;8.30;99.90;;;;;;5021018;28;20208;-26
2021/12/11 11:26:23;;;;;;;11.30;4.67;;;8.30;99.90;;;;;;5018125;28;20390;-26
2021/12/11 11:28:51;;;;;;;13.97;4.43;;;8.30;99.90;;;;;;5026371;28;20584;-26
2021/12/11 11:31:24;;;;;;;14.07;4.80;;;8.30;99.90;;;;;;5017779;28;20316;-26
2021/12/11 11:33:51;;;;;;;12.93;5.10;;;8.40;99.90;;;;;;5010754;28;20212;-26
2021/12/11 11:36:26;;;;;;;12.57;4.90;;;8.40;99.90;;;;;;5012554;28;20601;-26
2021/12/11 11:38:58;;;;;;;23.20;5.97;;;8.40;99.90;;;;;;5022751;28;20633;-24
2021/12/11 11:41:44;;;;;;;12.23;4.60;;;8.40;99.90;;;;;;5027965;28;20224;-24
2021/12/11 11:44:16;;;;;;;15.27;5.00;;;8.40;99.90;;;;;;5009575;28;20658;-27
2021/12/11 11:46:44;;;;;;;11.80;4.90;;;8.50;99.90;;;;;;5023030;28;20201;-25
2021/12/11 11:49:13;;;;;;;13.57;4.90;;;8.50;99.90;;;;;;5012116;28;20253;-24
2021/12/11 11:51:47;;;;;;;10.73;4.53;;;8.50;99.90;;;;;;5006391;28;20237;-24
2021/12/11 11:54:20;;;;;;;13.87;5.10;;;8.50;99.90;;;;;;5018727;28;20215;-24
2021/12/11 11:57:24;;;;;;;13.40;5.07;;;8.50;99.90;;;;;;5018386;28;20220;-24
2021/12/11 11:59:56;;;;;;;13.03;5.20;;;8.50;99.90;;;;;;5001074;28;20332;-24
2021/12/11 12:02:33;;;;;;;14.27;4.83;;;8.50;99.90;;;;;;5028645;28;20228;-24
2021/12/11 12:05:03;;;;;;;15.33;4.90;;;8.50;99.90;;;;;;5019800;28;20224;-24
2021/12/11 12:07:32;;;;;;;11.93;3.93;;;8.50;99.90;;;;;;5014325;28;20637;-24
2021/12/11 12:10:07;;;;;;;13.57;4.70;;;8.50;99.90;;;;;;5009362;28;20206;-24
2021/12/11 12:12:35;;;;;;;14.10;5.27;;;8.50;99.90;;;;;;5010177;28;20204;-25
2021/12/11 12:15:06;;;;;;;17.53;4.90;;;8.50;99.90;;;;;;5007469;28;20212;-24
2021/12/11 12:17:34;;;;;;;9.80;4.50;;;8.60;99.90;;;;;;5012557;28;20231;-24
2021/12/11 12:20:03;;;;;;;14.10;4.80;;;8.60;99.90;;;;;;5025348;28;20733;-24
2021/12/11 12:22:33;;;;;;;10.87;4.40;;;8.60;99.90;;;;;;5021487;28;20296;-24
2021/12/11 12:25:02;;;;;;;12.27;4.77;;;8.60;99.90;;;;;;5007918;28;20212;-24
2021/12/11 12:27:32;;;;;;;12.40;4.70;;;8.60;99.90;;;;;;5010498;28;20233;-25
2021/12/11 12:30:03;;;;;;;14.47;4.23;;;8.60;99.90;;;;;;5009765;28;20197;-24
2021/12/11 12:32:36;;;;;;;14.00;4.17;;;8.60;99.90;;;;;;5017696;28;20236;-24
2021/12/11 12:35:10;;;;;;;11.33;4.00;;;8.70;99.90;;;;;;5013558;28;20204;-24
2021/12/11 12:37:38;;;;;;;9.63;4.40;;;8.70;99.90;;;;;;5017595;28;20807;-24
2021/12/11 12:40:14;;;;;;;13.83;4.20;;;8.70;99.90;;;;;;5014431;28;20578;-24
2021/12/11 12:42:52;;;;;;;10.97;3.90;;;8.70;99.90;;;;;;5030678;28;20343;-25
2021/12/11 12:45:23;;;;;;;10.67;4.07;;;8.80;99.90;;;;;;5020230;28;20707;-24
2021/12/11 12:47:59;;;;;;;9.93;3.33;;;8.80;99.90;;;;;;5014081;28;21029;-25
2021/12/11 12:50:33;;;;;;;9.87;3.70;;;8.80;99.90;;;;;;5012124;28;20236;-24
2021/12/11 12:53:03;;;;;;;9.70;4.00;;;8.80;99.90;;;;;;5009610;28;20201;-24
2021/12/11 12:55:42;;;;;;;13.97;4.07;;;8.90;99.90;;;;;;5012442;28;20289;-24
2021/12/11 12:58:18;;;;;;;10.80;4.40;;;8.90;99.90;;;;;;5027536;28;20247;-24
2021/12/11 13:00:50;;;;;;;13.10;4.30;;;8.90;99.90;;;;;;5023959;28;20193;-24
2021/12/11 13:03:28;;;;;;;8.60;3.43;;;8.90;99.90;;;;;;5030373;28;20201;-24
2021/12/11 13:06:03;;;;;;;13.27;4.17;;;8.90;99.90;;;;;;5019180;28;20310;-25
2021/12/11 13:08:38;;;;;;;11.17;4.73;;;8.90;99.90;;;;;;5018921;28;20225;-25
2021/12/11 13:11:17;;;;;;;14.00;4.33;;;8.90;99.90;;;;;;5015556;28;20228;-24
2021/12/11 13:13:47;;;;;;;11.03;4.53;;;8.90;99.90;;;;;;5011057;28;20652;-25
2021/12/11 13:16:20;;;;;;;13.13;5.10;;;8.90;99.90;;;;;;5012534;28;20312;-25
2021/12/11 13:18:57;;;;;;;11.60;4.50;;;8.90;99.90;;;;;;5012383;28;20241;-25
2021/12/11 13:21:27;;;;;;;14.47;4.60;;;8.90;99.90;;;;;;5019444;28;20204;-25
2021/12/11 13:24:00;;;;;;;14.00;4.57;;;8.90;99.90;;;;;;5025549;28;20315;-25
2021/12/11 13:26:31;;;;;;;13.17;4.13;;;8.90;99.90;;;;;;5015312;28;20201;-25
2021/12/11 13:29:03;;;;;;;9.23;4.60;;;8.90;99.90;;;;;;5013836;28;20632;-24
2021/12/11 13:31:42;;;;;;;16.70;4.93;;;8.90;99.90;;;;;;5025522;28;20211;-25
2021/12/11 13:34:09;;;;;;;15.43;4.60;;;8.90;99.90;;;;;;5022520;28;20608;-24
2021/12/11 13:36:36;;;;;;;11.30;4.97;;;8.90;99.90;;;;;;5009462;28;20301;-25
2021/12/11 13:39:06;;;;;;;11.30;4.70;;;8.90;99.90;;;;;;5010304;28;20696;-25